createdAt,value
2023-10-19T00:12:25.109Z,949.17
2023-10-19T00:27:25.858Z,948.92
2023-10-19T00:42:26.712Z,948.73
2023-10-19T00:57:26.937Z,948.98
2023-10-19T01:12:27.715Z,948.74
2023-10-19T01:27:28.476Z,948.78
2023-10-19T01:42:29.209Z,948.92
2023-10-19T01:57:30.064Z,948.66
2023-10-19T02:12:30.338Z,948.62
2023-10-19T02:27:33.377Z,948.53
2023-10-19T02:42:32.243Z,948.27
2023-10-19T02:57:32.941Z,948.22
2023-10-19T03:12:33.604Z,947.95
2023-10-19T03:27:34.472Z,947.73
2023-10-19T03:42:35.077Z,947.81
2023-10-19T03:57:35.682Z,947.93
2023-10-19T04:12:36.339Z,947.74
2023-10-19T04:27:36.953Z,947.56
2023-10-19T04:42:37.548Z,947.34
2023-10-19T04:57:38.268Z,947.46
2023-10-19T05:12:38.854Z,947.26
2023-10-19T05:27:39.376Z,947.30
2023-10-19T05:42:39.840Z,947.20
2023-10-19T05:57:40.288Z,947.22
2023-10-19T06:12:40.616Z,947.12
2023-10-19T06:27:41.216Z,947.21
2023-10-19T06:42:41.606Z,947.12
2023-10-19T06:57:42.158Z,947.09
2023-10-19T07:12:42.722Z,947.10
2023-10-19T07:27:43.230Z,947.14
2023-10-19T07:42:43.733Z,947.23
2023-10-19T07:57:44.068Z,946.90
2023-10-19T08:12:45.364Z,946.77
2023-10-19T08:27:45.221Z,946.78
2023-10-19T08:42:45.631Z,946.69
2023-10-19T08:57:46.031Z,946.76
2023-10-19T09:12:46.530Z,946.81
2023-10-19T09:27:46.899Z,946.81
2023-10-19T09:42:47.204Z,946.66
2023-10-19T09:57:47.599Z,946.45
2023-10-19T10:12:48.134Z,946.40
2023-10-19T10:27:48.685Z,946.17
2023-10-19T10:42:49.188Z,946.01
2023-10-19T10:57:50.714Z,945.93
2023-10-19T11:12:50.233Z,945.56
2023-10-19T11:27:51.050Z,945.63
2023-10-19T11:42:51.402Z,945.13
2023-10-19T11:57:51.753Z,944.86
2023-10-19T12:13:01.573Z,945.04
2023-10-19T12:27:53.601Z,944.73
2023-10-19T12:42:52.956Z,944.60
2023-10-19T12:57:54.014Z,944.39
2023-10-19T13:12:54.459Z,944.50
2023-10-19T13:27:55.265Z,944.46
2023-10-19T13:42:56.307Z,944.54
2023-10-19T13:57:56.930Z,944.48
2023-10-19T14:12:57.669Z,944.81
2023-10-19T14:27:58.568Z,943.93
2023-10-19T14:42:59.343Z,943.99
2023-10-19T14:58:00.112Z,944.16
2023-10-19T15:13:01.043Z,944.10
2023-10-19T15:28:01.377Z,944.02
2023-10-19T15:43:02.212Z,943.73
2023-10-19T15:58:02.420Z,943.54
2023-10-19T16:13:02.826Z,943.52
2023-10-19T16:28:03.120Z,943.59
2023-10-19T16:43:03.568Z,943.27
2023-10-19T16:58:04.623Z,943.25
2023-10-19T17:13:05.272Z,943.43
2023-10-19T17:28:05.676Z,943.33
2023-10-19T17:43:06.212Z,943.21
2023-10-19T17:58:06.894Z,943.06
2023-10-19T18:13:07.524Z,942.93
2023-10-19T18:28:08.195Z,942.43
2023-10-19T18:43:08.785Z,942.08
2023-10-19T18:58:09.425Z,942.03
2023-10-19T19:13:09.891Z,942.20
2023-10-19T19:28:10.576Z,941.98
2023-10-19T19:43:11.370Z,941.98
2023-10-19T19:58:12.155Z,941.87
2023-10-19T20:13:12.823Z,941.75
2023-10-19T20:28:13.479Z,941.64
2023-10-19T20:43:14.127Z,941.21
2023-10-19T20:58:15.320Z,940.73
2023-10-19T21:13:15.578Z,940.74
2023-10-19T21:28:16.293Z,941.07
2023-10-19T21:43:17.026Z,940.48
2023-10-19T21:58:17.769Z,940.09
2023-10-19T22:13:18.500Z,939.75
2023-10-19T22:28:19.240Z,939.35
2023-10-19T22:43:20.080Z,939.26
2023-10-19T22:58:20.310Z,939.14
2023-10-19T23:13:21.059Z,938.94
2023-10-19T23:28:21.801Z,938.82
2023-10-19T23:43:22.536Z,938.59
2023-10-19T23:58:23.367Z,938.45
